createdAt,value
2023-01-26T00:00:55.601Z,15.02
2023-01-26T00:03:25.081Z,13.23
2023-01-26T00:05:54.637Z,14.55
2023-01-26T00:08:24.056Z,14.88
2023-01-26T00:10:56.637Z,13.50
2023-01-26T00:13:26.027Z,12.85
2023-01-26T00:15:55.401Z,14.77
2023-01-26T00:18:24.856Z,14.13
2023-01-26T00:20:57.916Z,13.77
2023-01-26T00:23:29.260Z,13.35
2023-01-26T00:26:00.462Z,12.55
2023-01-26T00:28:30.397Z,14.15
2023-01-26T00:31:05.090Z,14.38
2023-01-26T00:33:34.784Z,13.70
2023-01-26T00:36:06.010Z,14.20
2023-01-26T00:38:35.634Z,14.10
2023-01-26T00:41:07.135Z,13.90
2023-01-26T00:43:36.538Z,14.75
2023-01-26T00:46:06.270Z,14.13
2023-01-26T00:48:38.069Z,14.48
2023-01-26T00:51:09.489Z,14.73
2023-01-26T00:53:38.874Z,14.63
2023-01-26T00:56:10.255Z,14.25
2023-01-26T00:58:40.484Z,14.25
2023-01-26T01:01:09.984Z,13.45
2023-01-26T01:03:39.499Z,13.05
2023-01-26T01:06:08.947Z,14.25
2023-01-26T01:08:38.357Z,13.60
2023-01-26T01:11:12.965Z,14.10
2023-01-26T01:13:42.937Z,14.95
2023-01-26T01:16:16.749Z,14.02
2023-01-26T01:18:46.446Z,13.30
2023-01-26T01:21:18.557Z,13.55
2023-01-26T01:23:48.950Z,13.98
2023-01-26T01:26:19.855Z,15.30
2023-01-26T01:28:49.414Z,14.32
2023-01-26T01:31:18.849Z,14.27
2023-01-26T01:33:48.263Z,13.27
2023-01-26T01:36:18.706Z,13.07
2023-01-26T01:38:49.332Z,13.75
2023-01-26T01:41:23.722Z,13.40
2023-01-26T01:44:18.900Z,16.15
2023-01-26T01:46:54.991Z,12.73
2023-01-26T01:49:30.379Z,13.20
2023-01-26T01:52:07.697Z,12.50
2023-01-26T01:54:44.120Z,14.88
2023-01-26T01:57:27.578Z,14.20
2023-01-26T02:00:06.175Z,15.45
2023-01-26T02:02:44.921Z,14.75
2023-01-26T02:05:26.841Z,14.57
2023-01-26T02:07:56.245Z,14.43
2023-01-26T02:10:27.209Z,15.55
2023-01-26T02:13:00.646Z,15.35
2023-01-26T02:18:11.395Z,14.88
2023-01-26T02:20:48.688Z,15.25
2023-01-26T02:23:35.839Z,14.55
2023-01-26T02:26:16.646Z,14.77
2023-01-26T02:28:48.956Z,15.27
2023-01-26T02:31:20.020Z,14.80
2023-01-26T02:33:51.273Z,12.73
2023-01-26T02:36:24.487Z,14.93
2023-01-26T02:42:00.608Z,15.02
2023-01-26T02:44:31.557Z,14.93
2023-01-26T02:47:01.350Z,13.13
2023-01-26T02:49:48.446Z,13.57
2023-01-26T02:52:22.473Z,12.40
2023-01-26T02:55:16.139Z,13.23
2023-01-26T02:57:48.306Z,13.48
2023-01-26T03:00:20.441Z,12.18
2023-01-26T03:02:54.091Z,13.35
2023-01-26T03:05:23.584Z,13.52
2023-01-26T03:07:53.920Z,12.55
2023-01-26T03:10:26.970Z,12.23
2023-01-26T03:12:57.741Z,12.73
2023-01-26T03:15:43.531Z,11.60
2023-01-26T03:18:34.979Z,12.73
2023-01-26T03:21:25.792Z,12.75
2023-01-26T03:24:12.802Z,12.85
2023-01-26T03:27:08.758Z,14.35
2023-01-26T03:29:40.492Z,12.32
2023-01-26T03:32:10.058Z,15.63
2023-01-26T03:34:40.877Z,13.48
2023-01-26T03:37:10.546Z,13.70
2023-01-26T03:40:08.808Z,14.10
2023-01-26T03:42:57.200Z,13.05
2023-01-26T03:45:45.522Z,12.95
2023-01-26T03:48:32.451Z,13.45
2023-01-26T03:51:21.682Z,13.40
2023-01-26T03:54:08.842Z,13.52
2023-01-26T03:56:38.439Z,12.48
2023-01-26T03:59:15.668Z,12.05
2023-01-26T04:02:06.750Z,13.93
2023-01-26T04:04:55.514Z,12.85
2023-01-26T04:07:46.571Z,12.88
2023-01-26T04:10:17.122Z,13.00
2023-01-26T04:13:00.439Z,11.13
2023-01-26T04:15:48.044Z,11.23
2023-01-26T04:18:36.557Z,11.93
2023-01-26T04:21:25.164Z,12.32
2023-01-26T04:23:57.214Z,12.70
2023-01-26T04:26:34.733Z,11.88
2023-01-26T04:29:08.091Z,11.18
2023-01-26T04:31:38.280Z,12.07
2023-01-26T04:34:14.146Z,15.10
2023-01-26T04:36:45.915Z,12.50
2023-01-26T04:39:17.534Z,12.40
2023-01-26T04:41:50.772Z,12.20
2023-01-26T04:44:22.110Z,12.20
2023-01-26T04:46:51.965Z,13.32
2023-01-26T04:49:25.180Z,10.95
2023-01-26T04:51:55.029Z,15.52
2023-01-26T04:54:25.341Z,12.95
2023-01-26T04:56:55.272Z,11.65
2023-01-26T04:59:24.937Z,11.20
2023-01-26T05:01:58.735Z,11.27
2023-01-26T05:04:30.288Z,12.60
2023-01-26T05:06:59.929Z,11.88
2023-01-26T05:09:30.197Z,11.73
2023-01-26T05:12:34.813Z,11.50
2023-01-26T05:15:22.500Z,12.03
2023-01-26T05:18:15.123Z,11.80
2023-01-26T05:21:04.024Z,12.02
2023-01-26T05:23:41.636Z,11.45
2023-01-26T05:26:29.743Z,10.77
2023-01-26T05:31:32.689Z,9.98
2023-01-26T05:34:02.098Z,10.60
2023-01-26T05:36:33.475Z,11.13
2023-01-26T05:39:03.019Z,12.48
2023-01-26T05:41:33.400Z,13.18
2023-01-26T05:44:21.118Z,12.70
2023-01-26T05:46:54.794Z,10.35
2023-01-26T05:49:24.598Z,11.23
2023-01-26T05:51:56.471Z,11.27
2023-01-26T05:54:27.077Z,11.13
2023-01-26T05:56:57.834Z,12.15
2023-01-26T05:59:29.067Z,12.20
2023-01-26T06:01:58.680Z,12.27
2023-01-26T06:04:29.155Z,10.90
2023-01-26T06:07:02.767Z,10.55
2023-01-26T06:09:38.128Z,11.75
2023-01-26T06:12:17.663Z,11.07
2023-01-26T06:14:59.389Z,10.18
2023-01-26T06:17:37.660Z,11.10
2023-01-26T06:20:12.612Z,10.57
2023-01-26T06:22:43.728Z,11.75
2023-01-26T06:25:13.231Z,10.55
2023-01-26T06:27:42.799Z,10.48
2023-01-26T06:30:28.872Z,10.57
2023-01-26T06:33:03.208Z,11.10
2023-01-26T06:35:37.155Z,11.02
2023-01-26T06:38:10.383Z,11.77
2023-01-26T06:40:39.890Z,11.38
2023-01-26T06:43:09.283Z,11.50
2023-01-26T06:45:39.046Z,10.13
2023-01-26T06:48:08.474Z,9.63
2023-01-26T06:50:38.110Z,9.27
2023-01-26T06:53:30.873Z,10.75
2023-01-26T06:56:18.770Z,10.90
2023-01-26T06:59:11.581Z,8.20
2023-01-26T07:02:00.321Z,9.75
2023-01-26T07:04:29.714Z,10.18
2023-01-26T07:06:59.222Z,9.13
2023-01-26T07:09:30.673Z,9.90
2023-01-26T07:12:00.119Z,9.10
2023-01-26T07:14:29.553Z,9.43
2023-01-26T07:16:59.015Z,10.50
2023-01-26T07:19:30.338Z,9.32
2023-01-26T07:21:59.838Z,9.18
2023-01-26T07:24:31.128Z,10.02
2023-01-26T07:27:00.554Z,8.65
2023-01-26T07:29:29.923Z,9.10
2023-01-26T07:31:59.378Z,9.25
2023-01-26T07:34:28.829Z,10.45
2023-01-26T07:36:58.372Z,8.57
2023-01-26T07:39:27.877Z,8.52
2023-01-26T07:41:58.710Z,8.40
2023-01-26T07:44:48.862Z,8.95
2023-01-26T07:47:20.028Z,8.93
2023-01-26T07:49:49.403Z,9.27
2023-01-26T07:52:19.009Z,8.85
2023-01-26T07:54:48.404Z,10.68
2023-01-26T07:57:19.169Z,10.18
2023-01-26T07:59:48.632Z,9.63
2023-01-26T08:02:18.123Z,8.20
2023-01-26T08:04:47.670Z,6.15
2023-01-26T08:07:17.441Z,6.60
2023-01-26T08:09:46.857Z,6.55
2023-01-26T08:12:16.246Z,8.20
2023-01-26T08:14:47.436Z,6.55
2023-01-26T08:17:17.761Z,7.28
2023-01-26T08:19:47.835Z,6.53
2023-01-26T08:22:17.390Z,7.88
2023-01-26T08:24:46.776Z,8.82
2023-01-26T08:27:16.236Z,8.23
2023-01-26T08:29:47.067Z,7.38
2023-01-26T08:32:16.570Z,8.18
2023-01-26T08:34:48.363Z,6.90
2023-01-26T08:37:17.839Z,7.18
2023-01-26T08:39:47.187Z,8.65
2023-01-26T08:42:16.960Z,8.30
2023-01-26T08:44:47.817Z,9.48
2023-01-26T08:47:17.241Z,8.25
2023-01-26T08:49:46.686Z,9.25
2023-01-26T08:52:16.691Z,7.97
2023-01-26T08:54:46.206Z,8.30
2023-01-26T08:57:15.610Z,7.45
2023-01-26T08:59:45.063Z,7.60
2023-01-26T09:02:15.987Z,8.75
2023-01-26T09:04:45.497Z,8.75
2023-01-26T09:07:15.021Z,8.75
2023-01-26T09:09:44.909Z,9.38
2023-01-26T09:12:14.310Z,7.93
2023-01-26T09:14:43.678Z,7.75
2023-01-26T09:17:13.035Z,7.70
2023-01-26T09:19:44.998Z,9.80
2023-01-26T09:22:14.518Z,9.27
2023-01-26T09:24:44.193Z,8.65
2023-01-26T09:27:13.560Z,7.82
2023-01-26T09:29:43.036Z,8.30
2023-01-26T09:32:12.518Z,8.43
2023-01-26T09:34:45.779Z,9.57
2023-01-26T09:37:16.185Z,9.25
2023-01-26T09:39:45.827Z,8.50
2023-01-26T09:42:39.195Z,10.00
2023-01-26T09:45:28.422Z,8.05
2023-01-26T09:48:25.196Z,7.63
2023-01-26T09:51:07.655Z,7.55
2023-01-26T09:53:47.917Z,8.10
2023-01-26T09:56:21.171Z,9.23
2023-01-26T09:58:57.481Z,8.18
2023-01-26T10:01:38.387Z,9.48
2023-01-26T10:04:21.490Z,9.52
2023-01-26T10:06:54.832Z,8.05
2023-01-26T10:09:49.456Z,6.20
2023-01-26T10:12:25.921Z,8.95
2023-01-26T10:15:02.786Z,11.65
2023-01-26T10:17:36.810Z,9.50
2023-01-26T10:20:19.528Z,10.55
2023-01-26T10:22:54.380Z,9.30
2023-01-26T10:25:35.330Z,11.48
2023-01-26T10:28:15.349Z,14.35
2023-01-26T10:30:48.334Z,10.48
2023-01-26T10:33:25.833Z,10.48
2023-01-26T10:35:56.057Z,10.90
2023-01-26T10:38:41.807Z,12.13
2023-01-26T10:41:28.286Z,13.30
2023-01-26T10:44:00.810Z,10.93
2023-01-26T10:46:35.272Z,10.63
2023-01-26T10:49:17.119Z,10.68
2023-01-26T10:52:07.321Z,9.27
2023-01-26T10:54:39.544Z,9.57
2023-01-26T10:57:28.544Z,9.02
2023-01-26T11:00:00.268Z,9.05
2023-01-26T11:02:32.403Z,8.75
2023-01-26T11:05:24.380Z,9.40
2023-01-26T11:08:00.205Z,9.43
2023-01-26T11:10:36.171Z,9.63
2023-01-26T11:13:19.954Z,8.82
2023-01-26T11:15:53.416Z,9.27
2023-01-26T11:18:42.432Z,9.27
2023-01-26T11:21:17.322Z,10.82
2023-01-26T11:24:06.091Z,11.10
2023-01-26T11:27:29.906Z,11.48
2023-01-26T11:30:28.296Z,10.00
2023-01-26T11:33:07.736Z,11.13
2023-01-26T11:35:52.576Z,11.57
2023-01-26T11:38:37.325Z,10.40
2023-01-26T11:41:29.129Z,8.60
2023-01-26T11:44:55.268Z,9.50
2023-01-26T11:47:46.354Z,8.73
2023-01-26T11:50:36.849Z,8.20
2023-01-26T11:53:32.853Z,9.00
2023-01-26T11:56:25.716Z,8.50
2023-01-26T11:59:02.719Z,9.00
2023-01-26T12:01:42.694Z,9.60
2023-01-26T12:04:22.271Z,8.20
2023-01-26T12:06:59.185Z,10.23
2023-01-26T12:09:38.558Z,8.85
2023-01-26T12:12:15.386Z,9.40
2023-01-26T12:14:54.325Z,11.10
2023-01-26T12:17:43.329Z,9.73
2023-01-26T12:20:37.483Z,8.38
2023-01-26T12:23:18.498Z,9.57
2023-01-26T12:25:55.643Z,10.43
2023-01-26T12:28:32.782Z,9.40
2023-01-26T12:31:14.218Z,8.25
2023-01-26T12:33:45.915Z,11.40
2023-01-26T12:36:29.240Z,9.23
2023-01-26T12:39:14.938Z,8.32
2023-01-26T12:42:18.782Z,10.73
2023-01-26T12:44:55.353Z,8.18
2023-01-26T12:47:33.044Z,8.88
2023-01-26T12:50:12.643Z,9.32
2023-01-26T12:52:48.696Z,7.65
2023-01-26T12:55:25.167Z,10.25
2023-01-26T12:58:00.140Z,7.65
2023-01-26T13:00:33.805Z,16.00
2023-01-26T13:03:15.266Z,9.15
2023-01-26T13:06:03.448Z,8.75
2023-01-26T13:08:53.907Z,10.30
2023-01-26T13:11:46.470Z,10.15
2023-01-26T13:14:38.938Z,9.65
2023-01-26T13:17:59.836Z,10.18
2023-01-26T13:20:51.000Z,7.70
2023-01-26T13:23:45.489Z,8.63
2023-01-26T13:26:47.321Z,10.27
2023-01-26T13:29:36.131Z,11.38
2023-01-26T13:33:06.444Z,9.80
2023-01-26T13:35:38.009Z,9.48
2023-01-26T13:38:21.321Z,9.88
2023-01-26T13:40:52.308Z,9.27
2023-01-26T13:43:33.768Z,8.50
2023-01-26T13:46:15.362Z,10.65
2023-01-26T13:48:49.206Z,8.40
2023-01-26T13:51:23.850Z,10.43
2023-01-26T13:54:05.697Z,10.48
2023-01-26T13:56:39.844Z,10.52
2023-01-26T14:00:49.951Z,9.98
2023-01-26T14:03:23.134Z,10.50
2023-01-26T14:05:57.827Z,11.50
2023-01-26T14:08:27.628Z,11.32
2023-01-26T14:10:57.526Z,12.00
2023-01-26T14:13:37.685Z,11.82
2023-01-26T14:16:23.612Z,11.70
2023-01-26T14:19:05.735Z,9.10
2023-01-26T14:21:46.643Z,11.38
2023-01-26T14:24:16.534Z,8.88
2023-01-26T14:26:46.423Z,10.93
2023-01-26T14:29:24.426Z,11.00
2023-01-26T14:31:57.959Z,9.25
2023-01-26T14:34:30.849Z,10.38
2023-01-26T14:37:14.517Z,8.73
2023-01-26T14:42:21.413Z,9.80
2023-01-26T14:44:52.182Z,10.88
2023-01-26T14:47:26.754Z,11.27
2023-01-26T14:50:30.724Z,10.20
2023-01-26T14:53:01.497Z,10.30
2023-01-26T14:55:36.143Z,9.05
2023-01-26T14:58:19.988Z,11.05
2023-01-26T15:00:52.160Z,9.18
2023-01-26T15:03:30.930Z,9.55
2023-01-26T15:06:23.810Z,9.02
2023-01-26T15:09:04.101Z,9.73
2023-01-26T15:11:57.649Z,11.93
2023-01-26T15:14:36.875Z,10.07
2023-01-26T15:17:07.758Z,11.65
2023-01-26T15:19:45.968Z,8.55
2023-01-26T15:22:24.265Z,9.43
2023-01-26T15:25:20.010Z,9.30
2023-01-26T15:27:57.457Z,10.25
2023-01-26T15:30:32.860Z,8.85
2023-01-26T15:33:04.698Z,8.05
2023-01-26T15:35:35.952Z,9.55
2023-01-26T15:38:10.837Z,10.00
2023-01-26T15:40:41.266Z,9.13
2023-01-26T15:43:15.897Z,8.60
2023-01-26T15:45:53.553Z,10.00
2023-01-26T15:48:26.825Z,9.02
2023-01-26T15:53:27.076Z,8.25
2023-01-26T15:55:58.500Z,8.82
2023-01-26T15:58:28.759Z,10.60
2023-01-26T16:00:58.840Z,8.98
2023-01-26T16:03:29.550Z,9.98
2023-01-26T16:05:59.327Z,10.52
2023-01-26T16:08:28.794Z,8.80
2023-01-26T16:10:59.662Z,9.55
2023-01-26T16:13:29.109Z,8.30
2023-01-26T16:16:01.726Z,10.68
2023-01-26T16:18:32.698Z,7.13
2023-01-26T16:21:02.298Z,9.82
2023-01-26T16:23:31.944Z,8.18
2023-01-26T16:26:01.387Z,8.38
2023-01-26T16:28:30.760Z,10.43
2023-01-26T16:31:02.528Z,10.35
2023-01-26T16:33:33.428Z,9.68
2023-01-26T16:36:02.823Z,9.23
2023-01-26T16:38:32.294Z,8.05
2023-01-26T16:41:01.862Z,9.27
2023-01-26T16:43:32.537Z,8.77
2023-01-26T16:46:01.935Z,7.28
2023-01-26T16:48:34.864Z,8.38
2023-01-26T16:51:20.704Z,8.07
2023-01-26T16:53:50.980Z,8.75
2023-01-26T16:56:21.666Z,8.77
2023-01-26T16:58:51.199Z,9.30
2023-01-26T17:01:24.189Z,9.07
2023-01-26T17:03:55.927Z,8.07
2023-01-26T17:06:25.848Z,10.23
2023-01-26T17:08:55.570Z,10.13
2023-01-26T17:11:28.412Z,9.05
2023-01-26T17:13:59.359Z,8.90
2023-01-26T17:16:32.020Z,8.88
2023-01-26T17:19:02.995Z,9.43
2023-01-26T17:21:32.649Z,8.93
2023-01-26T17:24:02.045Z,9.13
2023-01-26T17:26:31.385Z,9.73
2023-01-26T17:29:00.916Z,8.98
2023-01-26T17:31:31.676Z,7.90
2023-01-26T17:34:02.675Z,8.52
2023-01-26T17:36:32.096Z,8.52
2023-01-26T17:39:01.538Z,8.80
2023-01-26T17:41:30.924Z,7.78
2023-01-26T17:44:00.324Z,8.48
2023-01-26T17:46:29.904Z,9.18
2023-01-26T17:48:59.298Z,8.27
2023-01-26T17:51:30.082Z,8.20
2023-01-26T17:53:59.477Z,9.60
2023-01-26T17:56:30.806Z,9.65
2023-01-26T17:59:00.363Z,8.25
2023-01-26T18:01:29.810Z,10.70
2023-01-26T18:03:59.425Z,8.70
2023-01-26T18:06:31.198Z,8.00
2023-01-26T18:09:00.690Z,8.02
2023-01-26T18:11:30.214Z,7.22
2023-01-26T18:13:59.728Z,8.15
2023-01-26T18:16:29.438Z,8.15
2023-01-26T18:19:01.028Z,8.32
2023-01-26T18:21:34.436Z,7.93
2023-01-26T18:24:07.066Z,8.18
2023-01-26T18:26:39.121Z,7.53
2023-01-26T18:29:08.771Z,8.10
2023-01-26T18:31:41.569Z,7.97
2023-01-26T18:34:12.983Z,5.35
2023-01-26T18:36:43.843Z,6.85
2023-01-26T18:39:16.780Z,6.88
2023-01-26T18:41:46.217Z,7.00
2023-01-26T18:44:15.672Z,8.80
2023-01-26T18:46:45.096Z,8.23
2023-01-26T18:49:14.522Z,7.18
2023-01-26T18:51:48.045Z,9.65
2023-01-26T18:54:20.057Z,8.80
2023-01-26T18:56:49.491Z,10.70
2023-01-26T18:59:18.908Z,9.00
2023-01-26T19:01:48.737Z,8.90
2023-01-26T19:04:18.527Z,7.63
2023-01-26T19:06:49.357Z,7.63
2023-01-26T19:09:22.533Z,8.07
2023-01-26T19:11:52.318Z,8.77
2023-01-26T19:14:22.567Z,8.30
2023-01-26T19:16:52.146Z,8.57
2023-01-26T19:19:21.838Z,7.88
2023-01-26T19:21:52.699Z,9.45
2023-01-26T19:24:22.820Z,8.20
2023-01-26T19:26:52.344Z,8.18
2023-01-26T19:29:21.831Z,8.77
2023-01-26T19:31:51.410Z,8.55
2023-01-26T19:34:20.788Z,8.80
2023-01-26T19:36:50.247Z,9.10
2023-01-26T19:39:20.984Z,8.25
2023-01-26T19:41:50.576Z,7.68
2023-01-26T19:44:20.636Z,8.13
2023-01-26T19:46:52.971Z,7.68
2023-01-26T19:49:22.827Z,7.53
2023-01-26T19:51:53.218Z,8.95
2023-01-26T19:54:24.029Z,8.18
2023-01-26T19:56:53.432Z,7.60
2023-01-26T19:59:22.830Z,8.52
2023-01-26T20:01:52.166Z,8.88
2023-01-26T20:04:21.611Z,7.75
2023-01-26T20:06:51.061Z,8.52
2023-01-26T20:09:20.487Z,9.70
2023-01-26T20:11:52.570Z,9.00
2023-01-26T20:14:22.198Z,7.68
2023-01-26T20:16:51.635Z,9.38
2023-01-26T20:19:21.166Z,9.57
2023-01-26T20:21:50.921Z,11.13
2023-01-26T20:24:20.410Z,10.07
2023-01-26T20:26:51.477Z,10.27
2023-01-26T20:29:21.672Z,11.95
2023-01-26T20:31:51.973Z,11.25
2023-01-26T20:34:22.027Z,10.43
2023-01-26T20:36:54.582Z,10.57
2023-01-26T20:39:25.181Z,11.80
2023-01-26T20:41:58.045Z,10.15
2023-01-26T20:44:27.424Z,12.95
2023-01-26T20:46:57.139Z,10.45
2023-01-26T20:49:26.613Z,10.77
2023-01-26T20:51:55.989Z,10.90
2023-01-26T20:54:25.473Z,11.38
2023-01-26T20:56:55.000Z,11.00
2023-01-26T20:59:26.741Z,11.90
2023-01-26T21:01:56.182Z,10.05
2023-01-26T21:04:26.804Z,11.68
2023-01-26T21:06:56.212Z,10.73
2023-01-26T21:09:25.673Z,10.68
2023-01-26T21:11:55.029Z,11.30
2023-01-26T21:14:25.723Z,11.52
2023-01-26T21:16:55.641Z,10.45
2023-01-26T21:19:25.130Z,11.57
2023-01-26T21:21:54.634Z,10.82
2023-01-26T21:24:24.092Z,10.95
2023-01-26T21:26:53.499Z,9.73
2023-01-26T21:29:23.360Z,11.52
2023-01-26T21:31:54.088Z,13.38
2023-01-26T21:34:23.537Z,10.05
2023-01-26T21:36:52.907Z,10.40
2023-01-26T21:39:22.362Z,12.77
2023-01-26T21:41:57.601Z,11.98
2023-01-26T21:44:29.612Z,11.82
2023-01-26T21:47:03.940Z,10.45
2023-01-26T21:49:33.392Z,10.18
2023-01-26T21:52:20.091Z,10.43
2023-01-26T21:54:49.528Z,12.88
2023-01-26T21:57:36.632Z,11.10
2023-01-26T22:00:08.048Z,10.30
2023-01-26T22:02:38.784Z,10.18
2023-01-26T22:05:09.822Z,12.07
2023-01-26T22:07:39.399Z,12.02
2023-01-26T22:10:12.445Z,11.90
2023-01-26T22:12:42.351Z,7.68
2023-01-26T22:15:13.766Z,12.02
2023-01-26T22:17:44.631Z,11.65
2023-01-26T22:20:14.449Z,12.65
2023-01-26T22:22:44.075Z,12.27
2023-01-26T22:25:13.485Z,12.07
2023-01-26T22:27:43.024Z,11.48
2023-01-26T22:30:14.033Z,13.05
2023-01-26T22:32:45.558Z,13.45
2023-01-26T22:35:15.767Z,12.43
2023-01-26T22:37:45.531Z,12.63
2023-01-26T22:40:15.617Z,13.20
2023-01-26T22:42:44.994Z,13.23
2023-01-26T22:45:15.335Z,12.25
2023-01-26T22:47:46.324Z,11.55
2023-01-26T22:50:16.493Z,13.20
2023-01-26T22:52:45.894Z,11.18
2023-01-26T22:55:15.608Z,11.32
2023-01-26T22:57:45.106Z,11.98
2023-01-26T23:00:15.879Z,10.88
2023-01-26T23:02:46.653Z,11.23
2023-01-26T23:05:16.227Z,11.48
2023-01-26T23:07:45.893Z,11.52
2023-01-26T23:10:15.963Z,11.65
2023-01-26T23:12:45.293Z,12.73
2023-01-26T23:15:14.797Z,11.40
2023-01-26T23:17:44.202Z,11.98
2023-01-26T23:20:15.306Z,12.20
2023-01-26T23:22:44.645Z,13.27
2023-01-26T23:25:31.898Z,13.40
2023-01-26T23:28:04.298Z,10.93
2023-01-26T23:30:34.086Z,11.02
2023-01-26T23:33:03.546Z,13.27
2023-01-26T23:35:34.328Z,12.15
2023-01-26T23:38:04.074Z,11.68
2023-01-26T23:40:34.557Z,12.55
2023-01-26T23:43:16.164Z,12.20
2023-01-26T23:45:48.639Z,9.93
2023-01-26T23:48:18.939Z,11.43
2023-01-26T23:50:49.734Z,12.30
2023-01-26T23:53:19.072Z,11.90
2023-01-26T23:55:48.461Z,13.10
2023-01-26T23:58:17.838Z,11.35
